Time;durP1;ratioP1;P1;durP2;ratioP2;P2;SDS_P1;SDS_P2;PMS_P1;PMS_P2;Temp;Humidity;BMP_temperature;BMP_pressure;BME280_temperature;BME280_humidity;BME280_pressure;Samples;Min_cycle;Max_cycle;Signal;HPM_P1;HPM_P2
2023/05/04 00:01:48;;;;;;;11.98;8.95;;;9.00;99.90;;;;;;5008856;28;20034;-87
2023/05/04 00:04:14;;;;;;;15.43;9.82;;;8.90;99.90;;;;;;5011790;28;20116;-87
2023/05/04 00:06:39;;;;;;;17.30;10.40;;;8.90;99.90;;;;;;5003181;28;20022;-87
2023/05/04 00:09:05;;;;;;;16.48;10.05;;;8.80;99.90;;;;;;5017129;28;20025;-87
2023/05/04 00:11:31;;;;;;;16.40;10.80;;;8.80;99.90;;;;;;5027942;28;20025;-87
2023/05/04 00:13:57;;;;;;;16.73;10.90;;;8.70;99.90;;;;;;5019407;28;20104;-87
2023/05/04 00:16:23;;;;;;;14.25;10.55;;;8.70;99.90;;;;;;5028826;28;20056;-86
2023/05/04 00:18:48;;;;;;;18.40;10.35;;;8.70;99.90;;;;;;5013516;28;20030;-87
2023/05/04 00:21:14;;;;;;;14.38;10.95;;;8.60;99.90;;;;;;5017081;28;20041;-87
2023/05/04 00:23:40;;;;;;;16.10;10.63;;;8.60;99.90;;;;;;5018882;28;20034;-87
2023/05/04 00:26:05;;;;;;;17.05;11.48;;;8.60;99.90;;;;;;5015306;28;20033;-87
2023/05/04 00:28:31;;;;;;;17.05;12.07;;;8.60;99.90;;;;;;5008425;28;20030;-87
2023/05/04 00:30:56;;;;;;;18.80;10.60;;;8.50;99.90;;;;;;5004435;28;20021;-87
2023/05/04 00:33:22;;;;;;;18.42;10.80;;;8.50;99.90;;;;;;4993940;28;20160;-87
2023/05/04 00:35:47;;;;;;;17.35;10.93;;;8.50;99.90;;;;;;5006506;28;20029;-87
2023/05/04 00:38:15;;;;;;;14.23;10.65;;;8.50;99.90;;;;;;4994268;28;20514;-87
2023/05/04 00:40:41;;;;;;;12.50;9.70;;;8.40;99.90;;;;;;5001649;28;20616;-87
2023/05/04 00:43:07;;;;;;;15.45;10.05;;;8.40;99.90;;;;;;4981291;28;20129;-87
2023/05/04 00:45:33;;;;;;;14.30;10.13;;;8.40;99.90;;;;;;5013277;28;20038;-87
2023/05/04 00:47:58;;;;;;;15.07;10.73;;;8.30;99.90;;;;;;4988154;28;20671;-87
2023/05/04 00:50:25;;;;;;;16.25;9.77;;;8.30;99.90;;;;;;5006341;28;20037;-87
2023/05/04 00:52:52;;;;;;;20.63;10.98;;;8.30;99.90;;;;;;5020774;28;20060;-87
2023/05/04 00:55:18;;;;;;;16.83;9.90;;;8.30;99.90;;;;;;5009288;28;20030;-87
2023/05/04 00:57:44;;;;;;;17.38;11.38;;;8.30;99.90;;;;;;4994578;28;20060;-87
2023/05/04 01:00:12;;;;;;;19.92;11.48;;;8.20;99.90;;;;;;5014187;28;20030;-87
2023/05/04 01:02:38;;;;;;;13.45;9.52;;;8.20;99.90;;;;;;4999429;28;20046;-87
2023/05/04 01:05:05;;;;;;;16.10;10.25;;;8.20;99.90;;;;;;5008198;28;20034;-87
2023/05/04 01:07:56;;;;;;;14.57;10.68;;;8.10;99.90;;;;;;5002355;28;20030;-87
2023/05/04 01:10:33;;;;;;;18.73;11.43;;;8.10;99.90;;;;;;4992905;28;20037;-87
2023/05/04 01:13:07;;;;;;;15.63;10.75;;;8.10;99.90;;;;;;5002377;28;20084;-87
2023/05/04 01:15:34;;;;;;;18.48;10.18;;;8.00;99.90;;;;;;4995845;28;20033;-87
2023/05/04 01:17:59;;;;;;;18.67;10.90;;;8.00;99.90;;;;;;4987997;28;20038;-87
2023/05/04 01:20:25;;;;;;;9.50;7.43;;;8.00;99.90;;;;;;4993693;28;20114;-87
2023/05/04 01:22:50;;;;;;;15.30;9.98;;;7.90;99.90;;;;;;5012604;28;20406;-87
2023/05/04 01:25:17;;;;;;;15.95;10.80;;;7.90;99.90;;;;;;5007743;28;20026;-87
2023/05/04 01:28:02;;;;;;;16.15;10.38;;;7.90;99.90;;;;;;5003668;28;20100;-87
2023/05/04 01:30:32;;;;;;;13.75;10.05;;;7.90;99.90;;;;;;5013117;28;20026;-87
2023/05/04 01:32:58;;;;;;;15.77;10.25;;;7.80;99.90;;;;;;4998231;28;20033;-87
2023/05/04 01:35:24;;;;;;;17.70;10.50;;;7.80;99.90;;;;;;5001241;28;20029;-87
2023/05/04 01:37:50;;;;;;;11.30;8.70;;;7.80;99.90;;;;;;4999306;28;20030;-87
2023/05/04 01:40:15;;;;;;;13.15;8.80;;;7.80;99.90;;;;;;4992748;28;20114;-87
2023/05/04 01:42:41;;;;;;;18.45;10.40;;;7.70;99.90;;;;;;4998708;28;20118;-87
2023/05/04 01:45:08;;;;;;;18.85;9.93;;;7.70;99.90;;;;;;4998511;28;20034;-87
2023/05/04 01:47:34;;;;;;;16.38;9.75;;;7.70;99.90;;;;;;5001038;28;20037;-87
2023/05/04 01:49:59;;;;;;;15.35;10.00;;;7.70;99.90;;;;;;4999087;28;20029;-87
2023/05/04 01:52:25;;;;;;;13.88;9.25;;;7.70;99.90;;;;;;5012814;28;20072;-87
2023/05/04 01:54:50;;;;;;;18.00;10.90;;;7.60;99.90;;;;;;4998297;28;20022;-87
2023/05/04 01:57:16;;;;;;;15.63;9.20;;;7.60;99.90;;;;;;4995956;28;20025;-87
2023/05/04 01:59:41;;;;;;;17.42;10.38;;;7.60;99.90;;;;;;4992251;28;20057;-87
2023/05/04 02:02:07;;;;;;;13.82;9.65;;;7.60;99.90;;;;;;5006773;28;20030;-87
2023/05/04 02:04:32;;;;;;;18.60;11.48;;;7.60;99.90;;;;;;4979049;28;20057;-87
2023/05/04 02:06:58;;;;;;;17.15;10.18;;;7.50;99.90;;;;;;4993919;28;20079;-87
2023/05/04 02:09:24;;;;;;;12.50;9.77;;;7.50;99.90;;;;;;5006264;28;20038;-87
2023/05/04 02:11:49;;;;;;;15.32;10.75;;;7.50;99.90;;;;;;5009551;28;20045;-87
2023/05/04 02:14:15;;;;;;;15.13;8.50;;;7.50;99.90;;;;;;4997461;28;20117;-87
2023/05/04 02:16:40;;;;;;;16.70;9.27;;;7.50;99.90;;;;;;4989338;28;20506;-87
2023/05/04 02:19:06;;;;;;;19.05;10.70;;;7.50;99.90;;;;;;5003218;28;20029;-87
2023/05/04 02:21:31;;;;;;;11.82;8.05;;;7.40;99.90;;;;;;4997880;28;20132;-87
2023/05/04 02:23:58;;;;;;;14.60;8.93;;;7.40;99.90;;;;;;5014208;28;20525;-87
2023/05/04 02:26:23;;;;;;;15.45;10.25;;;7.40;99.90;;;;;;5002064;28;20452;-87
2023/05/04 02:28:49;;;;;;;17.38;9.77;;;7.40;99.90;;;;;;4998960;28;20038;-87
2023/05/04 02:31:14;;;;;;;14.68;9.88;;;7.40;99.90;;;;;;5001819;28;20022;-87
2023/05/04 02:33:40;;;;;;;16.90;10.50;;;7.40;99.90;;;;;;4995277;28;20084;-87
2023/05/04 02:36:06;;;;;;;14.45;9.15;;;7.30;99.90;;;;;;5021566;28;20030;-87
2023/05/04 02:38:31;;;;;;;15.05;9.43;;;7.30;99.90;;;;;;5019153;28;20032;-87
2023/05/04 02:40:57;;;;;;;15.52;9.95;;;7.30;99.90;;;;;;4988516;28;20030;-87
2023/05/04 02:43:23;;;;;;;17.70;10.85;;;7.30;99.90;;;;;;5003597;28;20034;-87
2023/05/04 02:45:48;;;;;;;18.98;10.82;;;7.30;99.90;;;;;;5013997;28;20025;-87
2023/05/04 02:48:14;;;;;;;16.92;9.95;;;7.20;99.90;;;;;;4994456;28;20022;-87
2023/05/04 02:50:39;;;;;;;18.70;10.82;;;7.20;99.90;;;;;;5015340;28;20122;-87
2023/05/04 02:53:05;;;;;;;18.38;10.82;;;7.10;99.90;;;;;;5000878;28;20032;-87
2023/05/04 02:55:31;;;;;;;15.00;10.00;;;7.10;99.90;;;;;;5012581;28;20421;-87
2023/05/04 02:57:57;;;;;;;15.32;10.15;;;7.10;99.90;;;;;;5003631;28;20042;-87
2023/05/04 03:00:22;;;;;;;16.50;10.98;;;7.10;99.90;;;;;;5013920;28;20022;-87
2023/05/04 03:02:48;;;;;;;15.70;9.30;;;7.00;99.90;;;;;;5014432;28;20566;-87
2023/05/04 03:05:13;;;;;;;12.50;9.27;;;7.00;99.90;;;;;;5007252;28;20509;-86
2023/05/04 03:07:39;;;;;;;13.40;8.98;;;7.00;99.90;;;;;;5005585;28;20028;-87
2023/05/04 03:10:07;;;;;;;13.15;9.25;;;7.00;99.90;;;;;;5003238;28;20112;-87
2023/05/04 03:12:32;;;;;;;15.63;10.85;;;7.00;99.90;;;;;;5002287;28;20029;-87
2023/05/04 03:14:58;;;;;;;17.48;11.07;;;6.90;99.90;;;;;;5024888;28;20441;-86
2023/05/04 03:17:24;;;;;;;15.27;10.50;;;6.90;99.90;;;;;;4997527;28;20516;-87
2023/05/04 03:19:49;;;;;;;14.93;9.65;;;6.80;99.90;;;;;;5014355;28;20029;-87
2023/05/04 03:22:15;;;;;;;17.85;10.75;;;6.90;99.90;;;;;;4998215;28;20034;-87
2023/05/04 03:24:40;;;;;;;15.57;10.43;;;6.80;99.90;;;;;;4990467;28;20045;-87
2023/05/04 03:27:06;;;;;;;16.40;10.05;;;6.80;99.90;;;;;;4993562;28;20029;-87
2023/05/04 03:29:31;;;;;;;18.00;11.73;;;6.80;99.90;;;;;;4996933;28;20033;-87
2023/05/04 03:31:57;;;;;;;18.17;10.68;;;6.80;99.90;;;;;;4986794;28;20030;-87
2023/05/04 03:34:22;;;;;;;16.85;10.93;;;6.70;99.90;;;;;;5007167;28;20021;-87
2023/05/04 03:36:48;;;;;;;17.25;12.65;;;6.70;99.90;;;;;;4998635;28;20026;-87
2023/05/04 03:39:16;;;;;;;19.42;11.75;;;6.70;99.90;;;;;;4995750;28;20398;-86
2023/05/04 03:41:42;;;;;;;15.60;11.43;;;6.70;99.90;;;;;;4997169;28;20076;-87
2023/05/04 03:44:08;;;;;;;15.68;10.45;;;6.70;99.90;;;;;;4995177;28;20396;-87
2023/05/04 03:46:33;;;;;;;18.55;10.93;;;6.60;99.90;;;;;;5000132;28;20036;-87
2023/05/04 03:48:59;;;;;;;17.33;10.38;;;6.60;99.90;;;;;;5002272;28;20033;-87
2023/05/04 03:51:25;;;;;;;16.92;10.85;;;6.60;99.90;;;;;;4996222;28;20121;-87
2023/05/04 03:53:50;;;;;;;16.40;10.52;;;6.60;99.90;;;;;;4995242;28;20390;-87
2023/05/04 03:56:16;;;;;;;15.45;9.65;;;6.60;99.90;;;;;;4991542;28;20026;-87
2023/05/04 03:58:41;;;;;;;20.15;11.32;;;6.50;99.90;;;;;;4988563;28;20097;-87
2023/05/04 04:01:07;;;;;;;16.83;11.20;;;6.50;99.90;;;;;;4984979;28;21586;-87
2023/05/04 04:03:35;;;;;;;18.58;11.10;;;6.50;99.90;;;;;;5008746;28;20505;-87
2023/05/04 04:06:02;;;;;;;15.05;10.23;;;6.50;99.90;;;;;;4996508;28;20022;-87
2023/05/04 04:08:28;;;;;;;17.10;11.35;;;6.50;99.90;;;;;;5015177;28;20375;-87
2023/05/04 04:10:54;;;;;;;15.25;11.27;;;6.50;99.90;;;;;;5000096;28;20155;-87
2023/05/04 04:13:19;;;;;;;17.92;11.30;;;6.50;99.90;;;;;;5000203;28;20026;-87
2023/05/04 04:15:45;;;;;;;16.02;10.55;;;6.40;99.90;;;;;;4997666;28;20497;-87
2023/05/04 04:18:11;;;;;;;16.45;10.80;;;6.40;99.90;;;;;;4993261;28;20041;-87
2023/05/04 04:20:37;;;;;;;15.05;9.68;;;6.40;99.90;;;;;;5000717;28;20117;-87
2023/05/04 04:23:03;;;;;;;15.52;10.27;;;6.50;99.90;;;;;;5004014;28;20116;-87
2023/05/04 04:25:29;;;;;;;17.13;10.10;;;6.50;99.90;;;;;;4988441;28;20033;-87
2023/05/04 04:27:54;;;;;;;19.08;11.55;;;6.50;99.90;;;;;;5000644;28;20083;-87
2023/05/04 04:30:20;;;;;;;18.02;11.18;;;6.50;99.90;;;;;;4987934;28;20034;-87
2023/05/04 04:32:46;;;;;;;16.27;11.48;;;6.60;99.90;;;;;;4989627;28;20038;-87
2023/05/04 04:35:13;;;;;;;17.10;11.35;;;6.60;99.90;;;;;;5001502;28;20026;-87
2023/05/04 04:37:38;;;;;;;14.18;10.98;;;6.60;99.90;;;;;;4994926;28;20029;-87
2023/05/04 04:40:06;;;;;;;16.92;10.50;;;6.60;99.90;;;;;;4994299;28;20057;-87
2023/05/04 04:42:32;;;;;;;16.80;10.80;;;6.70;99.90;;;;;;4995298;28;20076;-87
2023/05/04 04:44:58;;;;;;;15.82;11.02;;;6.70;99.90;;;;;;4994558;28;20049;-87
2023/05/04 04:47:23;;;;;;;14.63;10.02;;;6.80;99.90;;;;;;4992673;28;20042;-87
2023/05/04 04:49:49;;;;;;;18.83;11.10;;;6.80;99.90;;;;;;5013578;28;20113;-87
2023/05/04 04:52:16;;;;;;;22.45;11.35;;;6.90;99.90;;;;;;5001416;28;20061;-87
2023/05/04 04:54:41;;;;;;;16.25;11.43;;;6.80;99.90;;;;;;5017043;28;20030;-87
2023/05/04 04:57:07;;;;;;;19.52;11.75;;;6.90;99.90;;;;;;4996910;28;20026;-86
2023/05/04 04:59:32;;;;;;;16.52;10.70;;;7.00;99.90;;;;;;4980689;28;20429;-86
2023/05/04 05:01:58;;;;;;;18.38;11.10;;;7.10;99.90;;;;;;5005789;28;20406;-87
2023/05/04 05:04:24;;;;;;;17.95;10.35;;;7.10;99.90;;;;;;5004745;28;20034;-87
2023/05/04 05:06:50;;;;;;;16.67;10.55;;;7.10;99.90;;;;;;5014275;28;20036;-87
2023/05/04 05:09:16;;;;;;;21.13;10.80;;;7.20;99.90;;;;;;5019625;28;20030;-87
2023/05/04 05:11:41;;;;;;;21.08;13.88;;;7.30;99.90;;;;;;5002529;28;20030;-88
2023/05/04 05:14:07;;;;;;;22.25;13.48;;;7.30;99.90;;;;;;5020292;28;20026;-87
2023/05/04 05:16:32;;;;;;;18.35;11.02;;;7.40;99.90;;;;;;4993620;28;20040;-87
2023/05/04 05:18:58;;;;;;;17.25;9.13;;;7.40;99.90;;;;;;4997414;28;20037;-87
2023/05/04 05:21:23;;;;;;;21.75;11.18;;;7.40;99.90;;;;;;4999782;28;20033;-87
2023/05/04 05:23:49;;;;;;;16.98;10.13;;;7.50;99.90;;;;;;4998069;28;20069;-87
2023/05/04 05:26:15;;;;;;;17.33;10.77;;;7.60;99.90;;;;;;4994010;28;20034;-86
2023/05/04 05:28:40;;;;;;;17.80;10.23;;;7.60;99.90;;;;;;4999826;28;20048;-87
2023/05/04 05:31:06;;;;;;;16.23;10.75;;;7.70;99.90;;;;;;5013076;28;20399;-87
2023/05/04 05:33:32;;;;;;;18.20;10.73;;;7.80;99.90;;;;;;4990620;28;20026;-87
2023/05/04 05:35:57;;;;;;;15.57;10.65;;;7.80;99.90;;;;;;5000265;28;20022;-87
2023/05/04 05:38:23;;;;;;;22.83;11.35;;;7.90;99.90;;;;;;4990687;28;20068;-87
2023/05/04 05:40:48;;;;;;;14.57;10.13;;;8.00;99.90;;;;;;4999415;28;20026;-87
2023/05/04 05:43:14;;;;;;;16.48;10.25;;;8.10;99.90;;;;;;5012973;28;20129;-87
2023/05/04 05:45:39;;;;;;;16.10;10.20;;;8.20;99.90;;;;;;5004224;28;20466;-87
2023/05/04 05:48:05;;;;;;;12.38;8.75;;;8.30;99.90;;;;;;5002426;28;20037;-87
2023/05/04 05:50:31;;;;;;;13.45;10.30;;;8.40;99.90;;;;;;5016400;28;20117;-87
2023/05/04 05:52:56;;;;;;;15.18;9.68;;;8.50;99.90;;;;;;5001383;28;20026;-87
2023/05/04 05:55:21;;;;;;;16.23;10.63;;;8.60;99.90;;;;;;5019493;28;20113;-87
2023/05/04 05:57:47;;;;;;;18.60;10.38;;;8.60;99.90;;;;;;5007269;28;20180;-86
2023/05/04 06:00:13;;;;;;;16.05;9.73;;;8.70;99.90;;;;;;5007344;28;20034;-86
2023/05/04 06:02:39;;;;;;;16.38;10.13;;;8.80;99.90;;;;;;4999020;28;20029;-87
2023/05/04 06:05:05;;;;;;;17.15;9.68;;;8.90;99.90;;;;;;5014343;28;20038;-87
2023/05/04 06:07:30;;;;;;;15.73;9.95;;;9.10;99.90;;;;;;5016225;28;20029;-87
2023/05/04 06:09:56;;;;;;;14.55;8.73;;;9.20;99.90;;;;;;4999721;28;20025;-87
2023/05/04 06:12:21;;;;;;;14.63;9.43;;;9.30;99.90;;;;;;5019707;28;20037;-86
2023/05/04 06:14:47;;;;;;;19.80;9.82;;;9.40;99.90;;;;;;4987677;28;20463;-87
2023/05/04 06:17:12;;;;;;;20.25;8.82;;;9.50;99.90;;;;;;5004839;28;20103;-87
2023/05/04 06:19:38;;;;;;;12.80;7.50;;;9.70;99.90;;;;;;5007505;28;20021;-87
2023/05/04 06:22:04;;;;;;;15.52;9.63;;;9.80;99.90;;;;;;4989052;28;20044;-87
2023/05/04 06:24:31;;;;;;;13.02;8.60;;;9.90;99.90;;;;;;4999266;28;20049;-87
2023/05/04 06:26:57;;;;;;;11.40;8.07;;;9.90;99.90;;;;;;5013261;28;20511;-87
2023/05/04 06:29:23;;;;;;;13.15;8.40;;;10.00;99.90;;;;;;5001050;28;20113;-86
2023/05/04 06:31:48;;;;;;;17.20;8.18;;;10.10;99.90;;;;;;4999605;28;20037;-87
2023/05/04 06:34:17;;;;;;;13.60;9.10;;;10.20;99.90;;;;;;5006761;28;20033;-87
2023/05/04 06:36:43;;;;;;;14.90;8.60;;;10.30;99.90;;;;;;5013489;28;20473;-87
2023/05/04 06:39:09;;;;;;;12.93;8.43;;;10.40;99.90;;;;;;4998048;28;20040;-87
2023/05/04 06:41:35;;;;;;;13.43;7.97;;;10.50;99.90;;;;;;5026301;28;20160;-87
2023/05/04 06:44:03;;;;;;;11.90;8.57;;;10.60;99.90;;;;;;4996977;28;20041;-87
2023/05/04 06:46:29;;;;;;;11.73;7.82;;;10.80;99.90;;;;;;4992040;28;20371;-87
2023/05/04 06:48:57;;;;;;;13.18;8.30;;;10.90;99.90;;;;;;4998566;28;20025;-87
2023/05/04 06:51:22;;;;;;;13.88;8.65;;;10.90;99.90;;;;;;5016851;28;20029;-87
2023/05/04 06:53:48;;;;;;;14.15;8.38;;;11.00;99.90;;;;;;5001440;28;20509;-87
2023/05/04 06:56:13;;;;;;;11.57;8.30;;;11.10;99.90;;;;;;4992432;28;20073;-87
2023/05/04 06:58:39;;;;;;;14.23;7.88;;;11.20;99.90;;;;;;4995936;28;20085;-87
2023/05/04 07:01:07;;;;;;;10.85;8.38;;;11.30;99.90;;;;;;4994495;28;20034;-87
2023/05/04 07:03:33;;;;;;;12.77;8.68;;;11.40;99.90;;;;;;5009484;28;20037;-87
2023/05/04 07:05:59;;;;;;;12.88;8.98;;;11.40;99.90;;;;;;4995307;28;20033;-87
2023/05/04 07:08:24;;;;;;;14.18;8.60;;;11.40;99.90;;;;;;5003736;28;20038;-88
2023/05/04 07:10:50;;;;;;;14.95;7.78;;;11.50;99.90;;;;;;4983934;28;20018;-87
2023/05/04 07:13:15;;;;;;;11.55;8.65;;;11.60;99.90;;;;;;5014771;28;20029;-87
2023/05/04 07:15:41;;;;;;;12.13;8.15;;;11.60;99.90;;;;;;4996016;28;20052;-87
2023/05/04 07:18:07;;;;;;;11.80;7.95;;;11.70;99.90;;;;;;5014457;28;20466;-88
2023/05/04 07:20:32;;;;;;;14.70;8.60;;;11.70;99.90;;;;;;5014292;28;20379;-87
2023/05/04 07:22:58;;;;;;;14.07;7.95;;;11.80;99.90;;;;;;4996294;28;20387;-87
2023/05/04 07:25:24;;;;;;;12.65;7.13;;;11.90;99.90;;;;;;4993433;28;20022;-88
2023/05/04 07:27:50;;;;;;;12.20;8.30;;;11.90;99.90;;;;;;4980258;28;20467;-87
2023/05/04 07:30:15;;;;;;;12.55;7.80;;;12.00;99.90;;;;;;4983194;28;20022;-87
2023/05/04 07:32:41;;;;;;;9.93;7.32;;;12.10;99.90;;;;;;4993594;28;20029;-87
2023/05/04 07:35:07;;;;;;;13.50;7.90;;;12.20;99.90;;;;;;4995354;28;20032;-87
2023/05/04 07:37:32;;;;;;;10.38;6.93;;;12.30;99.90;;;;;;4995570;28;20021;-88
2023/05/04 07:39:59;;;;;;;13.80;7.60;;;12.40;99.90;;;;;;4989880;28;20026;-87
2023/05/04 07:42:26;;;;;;;11.18;7.57;;;12.50;99.90;;;;;;5007745;28;20038;-88
2023/05/04 07:44:52;;;;;;;11.23;6.60;;;12.70;99.90;;;;;;4996133;28;20041;-88
2023/05/04 07:47:18;;;;;;;14.48;6.95;;;12.90;99.90;;;;;;4996986;28;20382;-88
2023/05/04 07:49:43;;;;;;;10.05;5.72;;;12.90;99.90;;;;;;4997586;28;20037;-88
2023/05/04 07:52:09;;;;;;;10.95;6.88;;;13.00;99.90;;;;;;4997726;28;20018;-88
2023/05/04 07:54:35;;;;;;;14.48;7.05;;;13.10;99.90;;;;;;4994944;28;20034;-85
2023/05/04 07:57:02;;;;;;;13.02;7.32;;;13.20;99.90;;;;;;4998396;28;20076;-86
2023/05/04 07:59:28;;;;;;;11.43;6.10;;;13.40;99.90;;;;;;4997768;28;20061;-86
2023/05/04 08:01:53;;;;;;;8.82;6.03;;;13.50;99.90;;;;;;4994027;28;20061;-86
2023/05/04 08:04:19;;;;;;;10.05;6.63;;;13.60;99.90;;;;;;4995703;28;20121;-87
2023/05/04 08:06:45;;;;;;;9.57;6.15;;;13.70;99.90;;;;;;4995447;28;20030;-87
2023/05/04 08:09:11;;;;;;;10.18;6.97;;;13.80;99.90;;;;;;4992839;28;20027;-86
2023/05/04 08:11:38;;;;;;;14.18;7.03;;;13.80;99.90;;;;;;4994126;28;20026;-86
2023/05/04 08:14:04;;;;;;;12.07;7.13;;;13.90;99.90;;;;;;4992638;28;20198;-87
2023/05/04 08:16:30;;;;;;;8.52;6.40;;;14.00;99.90;;;;;;4976718;28;20117;-86
2023/05/04 08:18:56;;;;;;;9.73;6.15;;;14.10;99.90;;;;;;4986492;28;20087;-86
2023/05/04 08:21:22;;;;;;;8.35;5.28;;;14.20;99.90;;;;;;4996305;28;20018;-87
2023/05/04 08:23:48;;;;;;;10.95;5.88;;;14.30;99.90;;;;;;4992433;28;20539;-87
2023/05/04 08:26:14;;;;;;;10.30;5.18;;;14.50;99.90;;;;;;5013856;28;20034;-87
2023/05/04 08:28:39;;;;;;;8.52;5.38;;;14.80;99.90;;;;;;4996462;28;20033;-87
2023/05/04 08:31:06;;;;;;;8.48;4.93;;;14.90;99.90;;;;;;4998411;28;20118;-87
2023/05/04 08:33:32;;;;;;;9.60;5.25;;;15.00;99.90;;;;;;5013378;28;20022;-87
2023/05/04 08:35:58;;;;;;;12.88;5.57;;;14.90;99.90;;;;;;5001242;28;20080;-86
2023/05/04 08:38:23;;;;;;;9.68;5.35;;;14.90;99.90;;;;;;5009927;28;20034;-86
2023/05/04 08:40:49;;;;;;;6.50;4.63;;;15.00;99.90;;;;;;4996460;28;20523;-86
2023/05/04 08:43:15;;;;;;;6.97;4.22;;;15.00;99.90;;;;;;5005260;28;20497;-87
2023/05/04 08:45:41;;;;;;;9.50;4.90;;;15.10;99.90;;;;;;5010156;28;20026;-86
2023/05/04 08:48:08;;;;;;;11.00;5.13;;;15.10;99.90;;;;;;5017081;28;20572;-87
2023/05/04 08:50:35;;;;;;;7.72;5.07;;;15.20;99.90;;;;;;5015469;28;20017;-86
2023/05/04 08:53:04;;;;;;;8.55;4.82;;;15.30;99.90;;;;;;4997504;28;20033;-86
2023/05/04 08:55:35;;;;;;;7.70;4.43;;;15.40;99.90;;;;;;4996463;28;20026;-87
2023/05/04 08:58:04;;;;;;;9.85;4.47;;;15.50;99.90;;;;;;4997197;28;20398;-86
2023/05/04 09:00:31;;;;;;;7.25;4.22;;;15.70;99.60;;;;;;4997185;28;20119;-87
2023/05/04 09:03:00;;;;;;;7.70;4.47;;;15.80;98.80;;;;;;5009297;28;20049;-87
2023/05/04 09:05:27;;;;;;;9.82;4.57;;;16.00;99.00;;;;;;4998514;28;20026;-87
2023/05/04 09:07:52;;;;;;;6.03;4.30;;;16.20;98.70;;;;;;5010210;28;20022;-87
2023/05/04 09:10:18;;;;;;;8.85;4.85;;;16.30;97.50;;;;;;5001847;28;20025;-87
2023/05/04 09:12:45;;;;;;;6.82;4.07;;;16.20;96.40;;;;;;5009005;28;20122;-87
2023/05/04 09:15:18;;;;;;;6.97;4.10;;;16.20;96.60;;;;;;4994387;28;20359;-86
2023/05/04 09:18:01;;;;;;;9.55;3.97;;;16.30;96.30;;;;;;5012445;28;20053;-87
2023/05/04 09:20:28;;;;;;;7.90;4.03;;;16.30;96.50;;;;;;5014460;28;20048;-86
2023/05/04 09:23:06;;;;;;;9.18;3.75;;;16.50;96.80;;;;;;5013308;28;20033;-86
2023/05/04 09:25:51;;;;;;;9.15;4.93;;;16.70;96.40;;;;;;5018307;28;20048;-86
2023/05/04 09:28:18;;;;;;;9.73;3.95;;;16.80;95.90;;;;;;5007699;28;20022;-87
2023/05/04 09:30:44;;;;;;;4.38;2.90;;;16.90;95.40;;;;;;5003350;28;20030;-86
2023/05/04 09:33:10;;;;;;;9.40;4.65;;;17.00;95.40;;;;;;4995050;28;20026;-87
2023/05/04 09:35:39;;;;;;;5.93;3.85;;;17.10;94.80;;;;;;5013330;28;20030;-86
2023/05/04 09:38:06;;;;;;;7.90;4.55;;;17.10;94.60;;;;;;5014780;28;20101;-86
2023/05/04 09:40:40;;;;;;;9.48;4.28;;;17.10;94.20;;;;;;5007555;28;20029;-86
2023/05/04 09:43:09;;;;;;;10.18;4.18;;;17.30;94.40;;;;;;5004830;28;20038;-87
2023/05/04 09:45:39;;;;;;;7.75;4.30;;;17.30;93.30;;;;;;4994827;28;20048;-86
2023/05/04 09:48:18;;;;;;;7.22;3.30;;;17.40;93.70;;;;;;5008069;28;20029;-87
2023/05/04 09:50:51;;;;;;;5.55;3.30;;;17.60;93.60;;;;;;5025877;28;20044;-85
2023/05/04 09:53:18;;;;;;;;;;;17.70;93.20;;;;;;5012285;28;20500;-86
2023/05/04 09:55:46;;;;;;;6.00;2.80;;;17.70;93.20;;;;;;5002287;28;19920;-87
2023/05/04 09:58:15;;;;;;;8.55;3.83;;;17.80;93.40;;;;;;5012742;28;20042;-86
2023/05/04 10:00:42;;;;;;;5.82;3.20;;;18.00;93.10;;;;;;5007879;28;20028;-87
2023/05/04 10:03:08;;;;;;;8.43;4.18;;;18.10;93.30;;;;;;4994456;28;20034;-87
2023/05/04 10:05:37;;;;;;;7.00;3.90;;;18.30;92.70;;;;;;4997418;28;20057;-87
2023/05/04 10:08:04;;;;;;;6.55;3.75;;;18.40;91.70;;;;;;5013531;28;20030;-86
2023/05/04 10:10:30;;;;;;;5.15;2.92;;;18.50;91.50;;;;;;5009562;28;20395;-87
2023/05/04 10:12:56;;;;;;;9.60;3.78;;;18.60;91.40;;;;;;5013073;28;20485;-87
2023/05/04 10:15:23;;;;;;;5.95;3.25;;;18.70;91.00;;;;;;5007360;28;20048;-87
2023/05/04 10:18:06;;;;;;;7.13;3.80;;;18.80;90.80;;;;;;5010738;28;20025;-86
2023/05/04 10:20:58;;;;;;;10.25;3.72;;;19.00;90.90;;;;;;4987296;28;20053;-86
2023/05/04 10:23:43;;;;;;;8.45;3.40;;;19.20;90.20;;;;;;4986604;28;20550;-87
2023/05/04 10:26:30;;;;;;;6.00;3.13;;;19.30;89.70;;;;;;4994282;28;20042;-86
2023/05/04 10:29:16;;;;;;;5.80;2.85;;;19.40;88.80;;;;;;5016104;28;20029;-87
2023/05/04 10:31:42;;;;;;;5.97;3.20;;;19.50;88.80;;;;;;5010456;28;20107;-86
2023/05/04 10:34:09;;;;;;;9.48;3.10;;;19.80;89.30;;;;;;5013113;28;20025;-87
2023/05/04 10:36:38;;;;;;;7.10;3.70;;;20.00;87.80;;;;;;5013700;28;20030;-86
2023/05/04 10:39:31;;;;;;;6.70;3.42;;;20.20;86.00;;;;;;4998072;28;20153;-86
2023/05/04 10:42:02;;;;;;;7.65;2.85;;;20.20;85.70;;;;;;4994932;28;20054;-87
2023/05/04 10:44:29;;;;;;;6.13;3.40;;;20.30;85.80;;;;;;5001567;28;20068;-87
2023/05/04 10:47:02;;;;;;;11.15;3.53;;;20.50;85.70;;;;;;5033810;28;20025;-86
2023/05/04 10:49:28;;;;;;;6.38;3.90;;;20.70;85.40;;;;;;4980900;28;20030;-87
2023/05/04 10:52:08;;;;;;;6.72;3.67;;;20.80;83.50;;;;;;5008575;28;20029;-87
2023/05/04 10:54:35;;;;;;;6.65;3.15;;;20.90;83.00;;;;;;5013275;28;20018;-87
2023/05/04 10:57:11;;;;;;;6.03;3.35;;;20.90;82.50;;;;;;5007934;28;20026;-86
2023/05/04 10:59:38;;;;;;;7.10;3.53;;;20.90;81.00;;;;;;5025728;28;20068;-87
2023/05/04 11:02:05;;;;;;;8.45;4.13;;;20.90;81.10;;;;;;5002201;28;20395;-86
2023/05/04 11:04:31;;;;;;;8.38;3.50;;;21.00;81.00;;;;;;5004235;28;20088;-87
2023/05/04 11:07:05;;;;;;;5.38;3.20;;;21.20;79.90;;;;;;4996460;28;20023;-86
2023/05/04 11:09:39;;;;;;;8.88;3.90;;;21.30;79.50;;;;;;5013777;28;20034;-86
2023/05/04 11:12:09;;;;;;;13.98;4.35;;;21.50;79.40;;;;;;5011997;28;20033;-86
2023/05/04 11:14:41;;;;;;;9.05;4.68;;;21.50;78.00;;;;;;5011178;28;20065;-87
2023/05/04 11:17:07;;;;;;;5.25;4.10;;;21.60;76.80;;;;;;5027518;28;20067;-87
2023/05/04 11:19:33;;;;;;;7.45;4.00;;;21.70;76.30;;;;;;4995020;28;20076;-87
2023/05/04 11:22:00;;;;;;;41.05;6.07;;;21.70;76.40;;;;;;5009990;28;20100;-87
2023/05/04 11:24:39;;;;;;;13.20;5.28;;;21.80;76.00;;;;;;5014362;28;20048;-87
2023/05/04 11:27:06;;;;;;;19.23;6.20;;;21.80;74.70;;;;;;5012453;28;20029;-86
2023/05/04 11:29:32;;;;;;;10.63;5.20;;;21.80;75.00;;;;;;5001465;28;20050;-86
2023/05/04 11:31:58;;;;;;;8.75;4.50;;;21.80;73.10;;;;;;5013576;28;20021;-86
2023/05/04 11:34:24;;;;;;;10.15;4.40;;;21.80;72.10;;;;;;4993377;28;20613;-87
2023/05/04 11:36:49;;;;;;;8.82;4.50;;;21.80;69.90;;;;;;5020674;28;20052;-86
2023/05/04 11:39:16;;;;;;;8.38;3.92;;;21.70;70.10;;;;;;4976430;28;20041;-86
2023/05/04 11:41:42;;;;;;;10.73;4.95;;;21.80;71.20;;;;;;5012238;28;20019;-86
2023/05/04 11:44:09;;;;;;;7.93;4.50;;;22.00;70.60;;;;;;5006971;28;20041;-87
2023/05/04 11:46:35;;;;;;;8.85;3.75;;;22.10;69.70;;;;;;4997596;28;20030;-87
2023/05/04 11:49:02;;;;;;;14.27;4.80;;;22.20;69.80;;;;;;5022250;28;20120;-87
2023/05/04 11:51:28;;;;;;;9.80;4.88;;;22.20;70.20;;;;;;5006872;28;20026;-86
2023/05/04 11:53:54;;;;;;;8.30;3.97;;;22.30;69.10;;;;;;5008126;28;20021;-87
2023/05/04 11:56:20;;;;;;;9.43;5.18;;;22.40;68.80;;;;;;5000977;28;20146;-86
2023/05/04 11:58:46;;;;;;;7.40;5.00;;;22.50;69.30;;;;;;4992673;28;20082;-86
2023/05/04 12:01:11;;;;;;;9.55;4.22;;;22.60;67.60;;;;;;4990648;28;20112;-86
2023/05/04 12:03:38;;;;;;;10.80;4.55;;;22.50;67.40;;;;;;4998083;28;20477;-86
2023/05/04 12:06:04;;;;;;;33.00;5.38;;;22.60;67.60;;;;;;5005597;28;20029;-85
2023/05/04 12:08:33;;;;;;;8.90;4.18;;;22.70;67.80;;;;;;5016510;28;20029;-86
2023/05/04 12:11:25;;;;;;;9.32;5.15;;;22.80;68.40;;;;;;5001809;28;20022;-86
2023/05/04 12:14:12;;;;;;;9.13;4.30;;;22.80;65.80;;;;;;4992777;28;20661;-86
2023/05/04 12:16:38;;;;;;;9.82;4.10;;;22.70;65.70;;;;;;5004300;28;20293;-86
2023/05/04 12:19:12;;;;;;;8.32;4.70;;;22.60;65.50;;;;;;5001440;28;20059;-86
2023/05/04 12:21:50;;;;;;;7.95;5.00;;;22.60;64.90;;;;;;5004281;28;20261;-87
2023/05/04 12:24:16;;;;;;;7.47;4.85;;;22.60;64.10;;;;;;4998423;28;20034;-87
2023/05/04 12:26:41;;;;;;;7.38;4.47;;;22.60;64.60;;;;;;4991858;28;20052;-87
2023/05/04 12:29:07;;;;;;;8.07;5.40;;;22.70;65.90;;;;;;4987098;28;20022;-87
2023/05/04 12:31:32;;;;;;;9.52;5.03;;;22.90;64.40;;;;;;5015389;28;20030;-86
2023/05/04 12:33:58;;;;;;;8.68;4.82;;;22.80;62.80;;;;;;4997212;28;20018;-86
2023/05/04 12:36:23;;;;;;;10.75;4.97;;;22.80;63.00;;;;;;4991084;28;20044;-87
2023/05/04 12:38:49;;;;;;;7.97;4.60;;;22.90;63.60;;;;;;5013799;28;20030;-88
2023/05/04 12:41:15;;;;;;;14.23;5.70;;;22.90;62.70;;;;;;5001354;28;20030;-87